createdAt,value
2022-10-08T00:01:16.623Z,13.04
2022-10-08T00:03:46.635Z,13.10
2022-10-08T00:06:15.747Z,13.04
2022-10-08T00:08:47.688Z,13.02
2022-10-08T00:11:18.109Z,12.95
2022-10-08T00:13:48.045Z,12.94
2022-10-08T00:16:17.097Z,12.91
2022-10-08T00:18:46.150Z,12.87
2022-10-08T00:21:17.342Z,12.83
2022-10-08T00:23:48.730Z,12.81
2022-10-08T00:26:18.363Z,12.78
2022-10-08T00:28:47.065Z,12.76
2022-10-08T00:31:22.910Z,12.74
2022-10-08T00:33:52.762Z,12.77
2022-10-08T00:36:20.544Z,12.75
2022-10-08T00:38:49.311Z,12.72
2022-10-08T00:41:22.033Z,12.70
2022-10-08T00:43:52.875Z,12.70
2022-10-08T00:46:34.673Z,12.70
2022-10-08T00:49:13.650Z,12.65
2022-10-08T00:51:49.691Z,12.66
2022-10-08T00:54:19.414Z,12.62
2022-10-08T00:56:52.299Z,12.61
2022-10-08T00:59:20.479Z,12.61
2022-10-08T01:01:47.881Z,12.59
2022-10-08T01:04:16.168Z,12.54
2022-10-08T01:06:52.196Z,12.54
2022-10-08T01:09:33.851Z,12.51
2022-10-08T01:12:29.392Z,12.45
2022-10-08T01:15:00.388Z,12.42
2022-10-08T01:17:37.056Z,12.37
2022-10-08T01:20:32.120Z,12.41
2022-10-08T01:23:21.438Z,12.38
2022-10-08T01:25:54.393Z,12.32
2022-10-08T01:28:41.786Z,12.31
2022-10-08T01:31:17.571Z,12.29
2022-10-08T01:34:01.597Z,12.29
2022-10-08T01:36:31.642Z,12.26
2022-10-08T01:39:03.052Z,12.22
2022-10-08T01:41:32.415Z,12.20
2022-10-08T01:44:15.140Z,12.21
2022-10-08T01:46:46.368Z,12.22
2022-10-08T01:49:18.571Z,12.22
2022-10-08T01:51:54.839Z,12.25
2022-10-08T01:54:25.251Z,12.19
2022-10-08T01:56:53.614Z,12.21
2022-10-08T01:59:26.046Z,12.22
2022-10-08T02:02:07.958Z,12.25
2022-10-08T02:04:36.987Z,12.29
2022-10-08T02:07:25.603Z,12.30
2022-10-08T02:10:02.780Z,12.29
2022-10-08T02:12:29.955Z,12.25
2022-10-08T02:14:58.265Z,12.24
2022-10-08T02:17:31.777Z,12.26
2022-10-08T02:20:18.890Z,12.28
2022-10-08T02:22:59.289Z,12.25
2022-10-08T02:25:37.011Z,12.21
2022-10-08T02:28:20.696Z,12.12
2022-10-08T02:30:53.766Z,12.08
2022-10-08T02:33:36.155Z,12.06
2022-10-08T02:36:06.241Z,12.08
2022-10-08T02:38:38.163Z,11.99
2022-10-08T02:41:08.783Z,11.97
2022-10-08T02:43:40.286Z,11.92
2022-10-08T02:46:12.379Z,11.91
2022-10-08T02:48:43.432Z,11.87
2022-10-08T02:51:15.572Z,11.88
2022-10-08T02:53:45.106Z,11.88
2022-10-08T02:56:17.745Z,11.84
2022-10-08T02:58:45.812Z,11.81
2022-10-08T03:01:40.112Z,11.72
2022-10-08T03:04:16.574Z,11.74
2022-10-08T03:06:44.873Z,11.74
2022-10-08T03:09:14.398Z,11.69
2022-10-08T03:11:41.636Z,11.69
2022-10-08T03:14:12.410Z,11.67
2022-10-08T03:16:42.685Z,11.64
2022-10-08T03:19:12.682Z,11.62
2022-10-08T03:21:42.829Z,11.63
2022-10-08T03:24:12.411Z,11.65
2022-10-08T03:26:40.078Z,11.66
2022-10-08T03:29:09.231Z,11.62
2022-10-08T03:31:36.605Z,11.54
2022-10-08T03:34:03.923Z,11.54
2022-10-08T03:36:31.403Z,11.54
2022-10-08T03:38:58.483Z,11.53
2022-10-08T03:41:25.842Z,11.52
2022-10-08T03:43:52.954Z,11.47
2022-10-08T03:46:20.100Z,11.43
2022-10-08T03:48:49.588Z,11.39
2022-10-08T03:51:18.192Z,11.42
2022-10-08T03:53:46.507Z,11.45
2022-10-08T03:56:19.934Z,11.48
2022-10-08T03:58:52.344Z,11.53
2022-10-08T04:01:19.475Z,11.54
2022-10-08T04:03:46.625Z,11.55
2022-10-08T04:06:14.259Z,11.56
2022-10-08T04:08:41.452Z,11.56
2022-10-08T04:11:11.432Z,11.51
2022-10-08T04:13:39.394Z,11.48
2022-10-08T04:16:09.112Z,11.53
2022-10-08T04:18:36.369Z,11.53
2022-10-08T04:21:06.678Z,11.50
2022-10-08T04:23:36.187Z,11.54
2022-10-08T04:26:03.775Z,11.59
2022-10-08T04:28:33.887Z,11.55
2022-10-08T04:31:10.837Z,11.58
2022-10-08T04:33:38.545Z,11.52
2022-10-08T04:36:10.583Z,11.50
2022-10-08T04:38:37.723Z,11.51
2022-10-08T04:41:19.866Z,11.49
2022-10-08T04:43:47.442Z,11.44
2022-10-08T04:46:17.219Z,11.41
2022-10-08T04:48:50.328Z,11.43
2022-10-08T04:51:18.233Z,11.34
2022-10-08T04:53:45.885Z,11.28
2022-10-08T04:56:19.461Z,11.27
2022-10-08T04:58:47.470Z,11.26
2022-10-08T05:01:16.973Z,11.28
2022-10-08T05:03:47.732Z,11.27
2022-10-08T05:06:16.507Z,11.29
2022-10-08T05:08:44.660Z,11.24
2022-10-08T05:11:12.230Z,11.23
2022-10-08T05:13:39.843Z,11.20
2022-10-08T05:16:13.922Z,11.19
2022-10-08T05:18:42.286Z,11.27
2022-10-08T05:21:12.370Z,11.33
2022-10-08T05:23:40.035Z,11.34
2022-10-08T05:26:35.954Z,11.38
2022-10-08T05:29:10.757Z,11.36
2022-10-08T05:31:38.523Z,11.34
2022-10-08T05:34:05.790Z,11.35
2022-10-08T05:36:34.394Z,11.33
2022-10-08T05:39:04.632Z,11.33
2022-10-08T05:41:34.313Z,11.29
2022-10-08T05:44:04.279Z,11.27
2022-10-08T05:46:34.410Z,11.33
2022-10-08T05:49:05.003Z,11.31
2022-10-08T05:51:32.337Z,11.30
2022-10-08T05:54:00.431Z,11.33
2022-10-08T05:56:28.951Z,11.36
2022-10-08T05:58:56.043Z,11.37
2022-10-08T06:01:29.265Z,11.43
2022-10-08T06:03:58.538Z,11.43
2022-10-08T06:06:26.611Z,11.45
2022-10-08T06:08:55.915Z,11.50
2022-10-08T06:11:23.096Z,11.49
2022-10-08T06:13:54.414Z,11.50
2022-10-08T06:16:22.184Z,11.57
2022-10-08T06:18:49.615Z,11.61
2022-10-08T06:21:19.497Z,11.65
2022-10-08T06:23:48.942Z,11.71
2022-10-08T06:26:18.073Z,11.78
2022-10-08T06:28:45.764Z,11.80
2022-10-08T06:31:13.215Z,11.88
2022-10-08T06:33:40.609Z,11.96
2022-10-08T06:36:14.671Z,12.09
2022-10-08T06:38:42.231Z,12.22
2022-10-08T06:41:09.611Z,12.26
2022-10-08T06:43:36.678Z,12.45
2022-10-08T06:46:05.779Z,12.63
2022-10-08T06:48:33.665Z,12.84
2022-10-08T06:51:03.013Z,13.06
2022-10-08T06:53:30.656Z,13.20
2022-10-08T06:55:59.175Z,13.31
2022-10-08T06:58:26.689Z,13.56
2022-10-08T07:01:02.733Z,13.74
2022-10-08T07:03:29.897Z,13.89
2022-10-08T07:06:00.206Z,14.14
2022-10-08T07:08:28.248Z,14.35
2022-10-08T07:10:56.170Z,14.53
2022-10-08T07:13:23.255Z,14.68
2022-10-08T07:15:50.429Z,14.83
2022-10-08T07:18:17.600Z,14.90
2022-10-08T07:20:44.759Z,14.85
2022-10-08T07:23:11.943Z,14.75
2022-10-08T07:25:39.006Z,14.78
2022-10-08T07:28:06.157Z,14.80
2022-10-08T07:30:36.480Z,14.86
2022-10-08T07:33:06.268Z,14.93
2022-10-08T07:35:33.394Z,15.07
2022-10-08T07:38:00.457Z,15.27
2022-10-08T07:40:27.534Z,15.47
2022-10-08T07:42:54.731Z,15.46
2022-10-08T07:45:21.928Z,15.74
2022-10-08T07:47:49.079Z,15.76
2022-10-08T07:50:16.286Z,15.87
2022-10-08T07:52:43.353Z,15.98
2022-10-08T07:55:10.440Z,16.13
2022-10-08T07:57:37.506Z,16.29
2022-10-08T08:00:05.094Z,16.46
2022-10-08T08:02:39.683Z,16.62
2022-10-08T08:05:07.464Z,16.79
2022-10-08T08:07:34.586Z,17.09
2022-10-08T08:10:01.669Z,17.11
2022-10-08T08:12:28.746Z,17.11
2022-10-08T08:14:55.893Z,17.21
2022-10-08T08:17:23.034Z,17.17
2022-10-08T08:19:50.169Z,17.20
2022-10-08T08:22:17.242Z,17.29
2022-10-08T08:24:44.345Z,17.43
2022-10-08T08:27:11.439Z,17.58
2022-10-08T08:29:38.545Z,17.75
2022-10-08T08:32:05.682Z,18.04
2022-10-08T08:34:32.790Z,18.21
2022-10-08T08:36:59.912Z,18.34
2022-10-08T08:39:28.054Z,18.48
2022-10-08T08:41:57.916Z,18.69
2022-10-08T08:44:34.810Z,18.81
2022-10-08T08:47:22.123Z,18.82
2022-10-08T08:49:54.450Z,19.02
2022-10-08T08:52:25.004Z,18.88
2022-10-08T08:54:53.445Z,19.10
2022-10-08T08:57:49.953Z,19.21
2022-10-08T09:00:22.168Z,19.18
2022-10-08T09:03:20.810Z,19.45
2022-10-08T09:05:52.594Z,19.57
2022-10-08T09:08:45.566Z,19.58
2022-10-08T09:11:15.140Z,19.71
2022-10-08T09:13:53.134Z,19.73
2022-10-08T09:16:20.299Z,19.86
2022-10-08T09:18:50.338Z,19.84
2022-10-08T09:21:19.075Z,19.80
2022-10-08T09:23:47.129Z,20.06
2022-10-08T09:26:40.527Z,20.17
2022-10-08T09:29:07.663Z,20.37
2022-10-08T09:31:47.910Z,20.49
2022-10-08T09:34:19.715Z,20.48
2022-10-08T09:36:51.714Z,20.66
2022-10-08T09:39:31.440Z,20.65
2022-10-08T09:42:07.379Z,20.80
2022-10-08T09:44:46.150Z,20.94
2022-10-08T09:47:19.131Z,21.02
2022-10-08T09:49:51.523Z,21.11
2022-10-08T09:52:26.756Z,21.28
2022-10-08T09:55:02.802Z,21.46
2022-10-08T09:57:32.687Z,21.38
2022-10-08T10:00:02.183Z,21.34
2022-10-08T10:02:32.104Z,21.50
2022-10-08T10:05:01.495Z,21.78
2022-10-08T10:07:43.590Z,21.84
2022-10-08T10:10:27.261Z,21.92
2022-10-08T10:13:04.986Z,21.98
2022-10-08T10:15:39.043Z,21.86
2022-10-08T10:18:14.786Z,22.03
2022-10-08T10:20:46.201Z,22.15
2022-10-08T10:23:34.947Z,22.54
2022-10-08T10:26:12.947Z,22.55
2022-10-08T10:28:44.327Z,22.56
2022-10-08T10:31:18.143Z,22.82
2022-10-08T10:33:56.123Z,23.13
2022-10-08T10:36:34.138Z,22.75
2022-10-08T10:39:22.644Z,22.88
2022-10-08T10:41:58.838Z,22.78
2022-10-08T10:44:51.868Z,22.74
2022-10-08T10:47:32.008Z,23.01
2022-10-08T10:50:03.055Z,22.91
2022-10-08T10:52:40.930Z,23.09
2022-10-08T10:55:25.890Z,23.28
2022-10-08T10:58:25.295Z,23.04
2022-10-08T11:01:02.914Z,22.95
2022-10-08T11:03:37.023Z,23.30
2022-10-08T11:06:34.870Z,23.22
2022-10-08T11:09:37.540Z,23.67
2022-10-08T11:12:18.678Z,23.70
2022-10-08T11:14:57.891Z,23.29
2022-10-08T11:17:46.043Z,23.80
2022-10-08T11:20:41.250Z,24.21
2022-10-08T11:23:29.619Z,24.44
2022-10-08T11:26:21.422Z,24.32
2022-10-08T11:29:15.695Z,24.16
2022-10-08T11:31:53.995Z,24.28
2022-10-08T11:34:29.562Z,24.22
2022-10-08T11:37:15.244Z,24.15
2022-10-08T11:39:58.631Z,24.21
2022-10-08T11:42:42.923Z,24.20
2022-10-08T11:45:24.091Z,24.23
2022-10-08T11:47:54.334Z,24.43
2022-10-08T11:50:34.506Z,24.55
2022-10-08T11:53:14.235Z,24.69
2022-10-08T11:56:19.061Z,24.61
2022-10-08T11:58:54.053Z,24.72
2022-10-08T12:01:22.177Z,24.59
2022-10-08T12:04:19.895Z,24.63
2022-10-08T12:06:59.663Z,24.81
2022-10-08T12:09:46.755Z,24.83
2022-10-08T12:12:14.255Z,24.87
2022-10-08T12:14:46.441Z,24.97
2022-10-08T12:17:14.341Z,24.89
2022-10-08T12:19:43.249Z,24.87
2022-10-08T12:22:16.516Z,24.89
2022-10-08T12:24:50.714Z,25.05
2022-10-08T12:27:18.093Z,25.34
2022-10-08T12:30:07.277Z,25.45
2022-10-08T12:32:40.095Z,25.67
2022-10-08T12:35:31.382Z,25.35
2022-10-08T12:38:13.576Z,25.34
2022-10-08T12:40:56.829Z,25.35
2022-10-08T12:44:06.034Z,25.34
2022-10-08T12:46:50.549Z,25.35
2022-10-08T12:49:44.547Z,25.73
2022-10-08T12:52:16.804Z,25.85
2022-10-08T12:54:57.270Z,25.77
2022-10-08T12:57:30.118Z,25.88
2022-10-08T13:00:00.308Z,25.86
2022-10-08T13:02:39.151Z,25.66
2022-10-08T13:05:23.957Z,25.89
2022-10-08T13:07:51.351Z,25.55
2022-10-08T13:10:22.498Z,25.77
2022-10-08T13:13:04.633Z,25.79
2022-10-08T13:15:33.495Z,25.50
2022-10-08T13:18:11.994Z,25.67
2022-10-08T13:20:39.123Z,25.85
2022-10-08T13:23:44.826Z,25.71
2022-10-08T13:26:38.209Z,25.78
2022-10-08T13:29:23.581Z,26.00
2022-10-08T13:32:05.697Z,26.04
2022-10-08T13:34:34.683Z,25.98
2022-10-08T13:37:05.934Z,26.17
2022-10-08T13:39:36.978Z,26.07
2022-10-08T13:42:34.720Z,26.12
2022-10-08T13:45:04.987Z,26.16
2022-10-08T13:47:32.111Z,25.99
2022-10-08T13:50:02.368Z,25.91
2022-10-08T13:52:32.377Z,25.98
2022-10-08T13:55:03.215Z,25.86
2022-10-08T13:57:30.679Z,25.96
2022-10-08T13:59:57.873Z,25.97
2022-10-08T14:02:25.153Z,25.74
2022-10-08T14:04:53.635Z,25.92
2022-10-08T14:07:28.090Z,25.74
2022-10-08T14:09:57.048Z,25.52
2022-10-08T14:12:26.886Z,25.57
2022-10-08T14:14:54.419Z,25.55
2022-10-08T14:17:21.813Z,25.47
2022-10-08T14:19:49.838Z,25.50
2022-10-08T14:22:17.756Z,25.59
2022-10-08T14:24:44.982Z,25.71
2022-10-08T14:27:12.122Z,25.77
2022-10-08T14:29:39.207Z,25.30
2022-10-08T14:32:08.410Z,25.40
2022-10-08T14:34:36.147Z,25.31
2022-10-08T14:37:04.055Z,25.58
2022-10-08T14:39:31.503Z,25.63
2022-10-08T14:41:58.708Z,25.41
2022-10-08T14:44:25.870Z,25.30
2022-10-08T14:46:53.072Z,25.36
2022-10-08T14:49:21.173Z,25.36
2022-10-08T14:51:48.510Z,25.71
2022-10-08T14:54:15.720Z,25.50
2022-10-08T14:56:43.134Z,25.72
2022-10-08T14:59:11.114Z,26.09
2022-10-08T15:01:38.836Z,26.45
2022-10-08T15:04:06.553Z,26.67
2022-10-08T15:06:34.124Z,26.98
2022-10-08T15:09:01.275Z,26.77
2022-10-08T15:11:28.359Z,26.41
2022-10-08T15:13:55.669Z,26.02
2022-10-08T15:16:23.023Z,25.71
2022-10-08T15:18:50.157Z,25.19
2022-10-08T15:21:18.187Z,24.73
2022-10-08T15:23:45.378Z,24.37
2022-10-08T15:26:17.453Z,24.01
2022-10-08T15:28:46.199Z,23.75
2022-10-08T15:31:16.140Z,23.63
2022-10-08T15:33:50.823Z,23.50
2022-10-08T15:36:22.076Z,23.38
2022-10-08T15:38:55.996Z,23.14
2022-10-08T15:41:23.510Z,23.06
2022-10-08T15:43:51.055Z,22.93
2022-10-08T15:46:19.369Z,22.85
2022-10-08T15:48:55.168Z,22.76
2022-10-08T15:51:23.654Z,22.70
2022-10-08T15:53:50.950Z,22.67
2022-10-08T15:56:18.083Z,22.59
2022-10-08T15:58:50.865Z,22.43
2022-10-08T16:01:21.518Z,22.38
2022-10-08T16:03:51.087Z,22.34
2022-10-08T16:06:23.894Z,22.24
2022-10-08T16:08:51.477Z,22.18
2022-10-08T16:11:27.558Z,21.91
2022-10-08T16:13:59.324Z,21.70
2022-10-08T16:16:26.861Z,21.63
2022-10-08T16:19:02.049Z,21.48
2022-10-08T16:21:31.882Z,21.42
2022-10-08T16:23:59.931Z,21.34
2022-10-08T16:26:28.902Z,21.23
2022-10-08T16:29:01.014Z,21.12
2022-10-08T16:31:30.898Z,21.04
2022-10-08T16:34:00.343Z,20.93
2022-10-08T16:36:29.878Z,20.74
2022-10-08T16:38:58.104Z,20.65
2022-10-08T16:41:30.973Z,20.55
2022-10-08T16:44:03.329Z,20.46
2022-10-08T16:46:36.046Z,20.38
2022-10-08T16:49:12.999Z,20.31
2022-10-08T16:51:40.305Z,20.24
2022-10-08T16:54:09.158Z,20.20
2022-10-08T16:56:38.208Z,20.10
2022-10-08T16:59:08.476Z,20.01
2022-10-08T17:01:38.138Z,19.97
2022-10-08T17:04:06.870Z,19.94
2022-10-08T17:06:34.773Z,19.88
2022-10-08T17:09:02.530Z,19.80
2022-10-08T17:11:29.879Z,19.70
2022-10-08T17:13:58.457Z,19.66
2022-10-08T17:16:27.052Z,19.61
2022-10-08T17:18:56.661Z,19.59
2022-10-08T17:21:24.825Z,19.58
2022-10-08T17:23:52.142Z,19.57
2022-10-08T17:26:22.428Z,19.53
2022-10-08T17:28:51.551Z,19.44
2022-10-08T17:31:24.399Z,19.39
2022-10-08T17:33:51.606Z,19.39
2022-10-08T17:36:25.320Z,19.34
2022-10-08T17:38:56.407Z,19.27
2022-10-08T17:41:28.347Z,19.21
2022-10-08T17:43:56.978Z,19.18
2022-10-08T17:46:26.262Z,19.15
2022-10-08T17:48:53.864Z,19.08
2022-10-08T17:51:23.723Z,19.09
2022-10-08T17:53:53.159Z,19.04
2022-10-08T17:56:21.466Z,19.00
2022-10-08T17:58:48.857Z,19.01
2022-10-08T18:01:18.883Z,19.01
2022-10-08T18:03:51.627Z,18.93
2022-10-08T18:06:19.288Z,18.88
2022-10-08T18:08:46.698Z,18.81
2022-10-08T18:11:16.493Z,18.75
2022-10-08T18:13:43.626Z,18.66
2022-10-08T18:16:13.532Z,18.60
2022-10-08T18:18:41.738Z,18.66
2022-10-08T18:21:11.202Z,18.67
2022-10-08T18:23:41.749Z,18.65
2022-10-08T18:26:09.000Z,18.71
2022-10-08T18:28:36.283Z,18.72
2022-10-08T18:31:08.135Z,18.75
2022-10-08T18:33:36.841Z,18.80
2022-10-08T18:36:17.812Z,18.82
2022-10-08T18:38:47.035Z,18.85
2022-10-08T18:41:20.022Z,18.86
2022-10-08T18:43:49.275Z,18.82
2022-10-08T18:46:18.896Z,18.79
2022-10-08T18:48:46.865Z,18.79
2022-10-08T18:51:17.426Z,18.76
2022-10-08T18:53:45.659Z,18.71
2022-10-08T18:56:35.299Z,18.66
2022-10-08T18:59:05.918Z,18.63
2022-10-08T19:01:35.657Z,18.61
2022-10-08T19:04:05.570Z,18.55
2022-10-08T19:06:38.050Z,18.51
2022-10-08T19:09:06.360Z,18.50
2022-10-08T19:11:44.350Z,18.48
2022-10-08T19:14:15.513Z,18.41
2022-10-08T19:16:43.587Z,18.41
2022-10-08T19:19:13.970Z,18.36
2022-10-08T19:21:41.525Z,18.33
2022-10-08T19:24:13.614Z,18.33
2022-10-08T19:26:40.703Z,18.27
2022-10-08T19:29:14.650Z,18.21
2022-10-08T19:31:41.918Z,18.14
2022-10-08T19:34:12.895Z,18.13
2022-10-08T19:36:40.490Z,18.02
2022-10-08T19:39:16.022Z,17.91
2022-10-08T19:41:44.202Z,17.88
2022-10-08T19:44:11.984Z,17.83
2022-10-08T19:46:39.199Z,17.78
2022-10-08T19:49:07.504Z,17.75
2022-10-08T19:51:35.464Z,17.68
2022-10-08T19:54:02.762Z,17.62
2022-10-08T19:56:30.955Z,17.58
2022-10-08T19:58:58.656Z,17.60
2022-10-08T20:01:31.784Z,17.56
2022-10-08T20:04:00.907Z,17.59
2022-10-08T20:06:30.607Z,17.58
2022-10-08T20:09:01.779Z,17.48
2022-10-08T20:11:31.008Z,17.38
2022-10-08T20:13:59.583Z,17.34
2022-10-08T20:16:30.053Z,17.37
2022-10-08T20:19:00.229Z,17.41
2022-10-08T20:21:29.258Z,17.31
2022-10-08T20:23:56.702Z,17.26
2022-10-08T20:26:24.588Z,17.21
2022-10-08T20:28:54.441Z,17.23
2022-10-08T20:31:27.464Z,17.20
2022-10-08T20:34:17.481Z,17.23
2022-10-08T20:36:48.602Z,17.24
2022-10-08T20:39:17.857Z,17.21
2022-10-08T20:41:45.355Z,17.22
2022-10-08T20:44:13.225Z,17.23
2022-10-08T20:46:40.503Z,17.25
2022-10-08T20:49:07.934Z,17.24
2022-10-08T20:51:38.253Z,17.21
2022-10-08T20:54:08.139Z,17.18
2022-10-08T20:56:40.044Z,17.15
2022-10-08T20:59:08.503Z,17.16
2022-10-08T21:01:38.338Z,17.09
2022-10-08T21:04:06.777Z,16.98
2022-10-08T21:06:48.492Z,16.96
2022-10-08T21:09:17.498Z,16.78
2022-10-08T21:11:47.883Z,16.73
2022-10-08T21:14:17.712Z,16.67
2022-10-08T21:16:45.081Z,16.59
2022-10-08T21:19:15.657Z,16.56
2022-10-08T21:21:42.807Z,16.50
2022-10-08T21:24:10.326Z,16.46
2022-10-08T21:26:39.615Z,16.42
2022-10-08T21:29:09.457Z,16.32
2022-10-08T21:31:38.522Z,16.30
2022-10-08T21:34:06.305Z,16.26
2022-10-08T21:36:38.919Z,16.29
2022-10-08T21:39:07.834Z,16.32
2022-10-08T21:41:36.906Z,16.31
2022-10-08T21:44:06.819Z,16.23
2022-10-08T21:46:36.881Z,16.21
2022-10-08T21:49:07.112Z,16.22
2022-10-08T21:51:34.878Z,16.24
2022-10-08T21:54:04.574Z,16.21
2022-10-08T21:56:33.674Z,16.18
2022-10-08T21:59:03.077Z,16.16
2022-10-08T22:01:31.719Z,16.13
2022-10-08T22:04:22.817Z,16.15
2022-10-08T22:06:52.483Z,15.99
2022-10-08T22:09:28.227Z,15.94
2022-10-08T22:11:57.408Z,15.95
2022-10-08T22:14:25.077Z,15.88
2022-10-08T22:16:52.548Z,15.84
2022-10-08T22:19:20.192Z,15.86
2022-10-08T22:21:47.374Z,15.80
2022-10-08T22:24:14.554Z,15.77
2022-10-08T22:26:43.971Z,15.75
2022-10-08T22:29:11.375Z,15.73
2022-10-08T22:31:39.051Z,15.71
2022-10-08T22:34:06.418Z,15.64
2022-10-08T22:36:38.617Z,15.63
2022-10-08T22:39:06.838Z,15.60
2022-10-08T22:41:34.417Z,15.53
2022-10-08T22:44:02.786Z,15.51
2022-10-08T22:46:34.470Z,15.43
2022-10-08T22:49:04.396Z,15.43
2022-10-08T22:51:32.153Z,15.44
2022-10-08T22:53:59.367Z,15.36
2022-10-08T22:56:30.413Z,15.36
2022-10-08T22:58:59.220Z,15.32
2022-10-08T23:01:28.213Z,15.31
2022-10-08T23:03:55.647Z,15.29
2022-10-08T23:06:24.142Z,15.27
2022-10-08T23:08:56.970Z,15.23
2022-10-08T23:11:24.554Z,15.22
2022-10-08T23:13:53.311Z,15.21
2022-10-08T23:16:20.962Z,15.23
2022-10-08T23:18:53.843Z,15.23
2022-10-08T23:21:21.886Z,15.32
2022-10-08T23:23:49.966Z,15.07
2022-10-08T23:26:18.316Z,14.97
2022-10-08T23:28:50.324Z,14.88
2022-10-08T23:31:19.557Z,14.85
2022-10-08T23:33:48.731Z,14.80
2022-10-08T23:36:27.747Z,14.78
2022-10-08T23:38:56.398Z,14.72
2022-10-08T23:41:24.131Z,14.66
2022-10-08T23:43:52.224Z,14.63
2022-10-08T23:46:22.290Z,14.60
2022-10-08T23:48:50.175Z,14.57
2022-10-08T23:51:18.411Z,14.55
2022-10-08T23:53:45.953Z,14.55
2022-10-08T23:56:14.229Z,14.54
2022-10-08T23:58:41.348Z,14.50
